CheckWX is a tool to help pilots better visualize weather data.  It is not intended as a substitute for an official pre-flight weather briefing.

01:34:28 UTC

LEGA METAR
Armilla Airport
Armilla, Spain
Current

13 hours ago

LEGA 031300Z 32008KT 260V030 9999 FEW080 34/05 Q1019
Observed
Jul-3 @ 13:00 UTC
Wind
  • 320° at 8 KTS
Visibility
10,000+ meters
Flight Rules
VFR
Cloud Levels
  • Few at 8,000' AGL
Temperature
34°C / 93°F
Dewpoint
C / 41°F
Humidity
16%
Altimeter
30.09" Hg
Pressure
1018.92 hPa
Previous

14 hours ago

LEGA 031200Z 33008KT CAVOK 33/07 Q1020
Observed
Jul-3 @ 12:00 UTC
Wind
  • 330° at 8 KTS
Visibility
10,000+ meters
Flight Rules
VFR
Cloud Levels
  • Clear skies
Temperature
33°C / 91°F
Dewpoint
C / 45°F
Humidity
20%
Altimeter
30.12" Hg
Pressure
1019.92 hPa
Previous

15 hours ago

LEGA 031100Z 32007KT 270V360 CAVOK 32/08 Q1020
Observed
Jul-3 @ 11:00 UTC
Wind
  • 320° at 7 KTS
Visibility
10,000+ meters
Flight Rules
VFR
Cloud Levels
  • Clear skies
Temperature
32°C / 90°F
Dewpoint
C / 46°F
Humidity
22%
Altimeter
30.12" Hg
Pressure
1019.92 hPa